createdAt,value
2023-01-08T00:00:05.788Z,11.12
2023-01-08T00:02:38.917Z,10.92
2023-01-08T00:05:06.193Z,10.96
2023-01-08T00:07:32.792Z,10.74
2023-01-08T00:09:59.343Z,10.74
2023-01-08T00:12:26.006Z,10.83
2023-01-08T00:14:52.542Z,10.69
2023-01-08T00:17:19.015Z,10.17
2023-01-08T00:19:46.586Z,10.25
2023-01-08T00:22:13.189Z,10.72
2023-01-08T00:24:39.785Z,10.65
2023-01-08T00:27:06.275Z,10.42
2023-01-08T00:29:32.909Z,10.47
2023-01-08T00:31:59.539Z,10.59
2023-01-08T00:34:26.123Z,10.78
2023-01-08T00:36:52.644Z,10.67
2023-01-08T00:39:19.157Z,10.80
2023-01-08T00:41:45.813Z,10.84
2023-01-08T00:44:12.383Z,10.25
2023-01-08T00:46:39.216Z,10.90
2023-01-08T00:49:05.704Z,10.91
2023-01-08T00:51:32.366Z,10.97
2023-01-08T00:53:58.963Z,10.86
2023-01-08T00:56:25.414Z,11.04
2023-01-08T00:58:52.035Z,11.05
2023-01-08T01:01:18.639Z,10.86
2023-01-08T01:03:46.260Z,10.89
2023-01-08T01:06:14.045Z,10.84
2023-01-08T01:08:41.268Z,10.95
2023-01-08T01:11:09.510Z,10.41
2023-01-08T01:13:36.131Z,10.83
2023-01-08T01:16:03.357Z,10.68
2023-01-08T01:18:30.020Z,10.58
2023-01-08T01:20:56.665Z,10.73
2023-01-08T01:23:23.147Z,10.68
2023-01-08T01:25:49.784Z,10.55
2023-01-08T01:28:17.303Z,10.72
2023-01-08T01:30:43.928Z,10.71
2023-01-08T01:33:10.416Z,10.61
2023-01-08T01:35:37.973Z,10.68
2023-01-08T01:38:04.549Z,10.75
2023-01-08T01:40:31.093Z,10.77
2023-01-08T01:42:58.628Z,10.62
2023-01-08T01:45:30.340Z,10.08
2023-01-08T01:48:02.332Z,10.29
2023-01-08T01:50:33.092Z,10.83
2023-01-08T01:53:05.291Z,10.68
2023-01-08T01:55:33.054Z,10.40
2023-01-08T01:58:12.225Z,10.81
2023-01-08T02:00:39.042Z,10.85
2023-01-08T02:03:06.875Z,10.73
2023-01-08T02:06:00.475Z,10.77
2023-01-08T02:08:37.002Z,10.74
2023-01-08T02:11:22.297Z,10.87
2023-01-08T02:13:58.135Z,10.85
2023-01-08T02:16:44.463Z,10.83
2023-01-08T02:19:37.402Z,10.88
2023-01-08T02:22:30.959Z,10.82
2023-01-08T02:25:15.660Z,10.91
2023-01-08T02:27:47.759Z,10.85
2023-01-08T02:30:14.642Z,10.64
2023-01-08T02:32:42.766Z,10.38
2023-01-08T02:35:11.095Z,10.15
2023-01-08T02:37:39.023Z,9.35
2023-01-08T02:40:30.885Z,9.73
2023-01-08T02:43:06.444Z,9.55
2023-01-08T02:45:52.631Z,9.24
2023-01-08T02:49:09.632Z,9.29
2023-01-08T02:51:44.687Z,8.74
2023-01-08T02:54:16.256Z,9.06
2023-01-08T02:56:48.034Z,9.04
2023-01-08T02:59:15.526Z,8.85
2023-01-08T03:01:43.432Z,8.80
2023-01-08T03:04:16.050Z,8.48
2023-01-08T03:06:43.772Z,8.90
2023-01-08T03:09:11.171Z,8.77
2023-01-08T03:11:50.082Z,8.41
2023-01-08T03:14:25.411Z,8.71
2023-01-08T03:17:01.086Z,8.67
2023-01-08T03:19:42.724Z,8.82
2023-01-08T03:22:13.318Z,8.81
2023-01-08T03:24:42.762Z,8.42
2023-01-08T03:27:12.822Z,8.76
2023-01-08T03:29:40.488Z,8.58
2023-01-08T03:32:13.887Z,8.64
2023-01-08T03:34:43.464Z,8.63
2023-01-08T03:37:12.719Z,8.60
2023-01-08T03:39:52.128Z,8.29
2023-01-08T03:42:20.314Z,8.58
2023-01-08T03:44:47.155Z,8.74
2023-01-08T03:47:15.307Z,8.74
2023-01-08T03:49:43.712Z,8.29
2023-01-08T03:52:21.296Z,8.59
2023-01-08T03:54:47.804Z,8.76
2023-01-08T03:57:14.375Z,8.64
2023-01-08T03:59:40.845Z,8.60
2023-01-08T04:02:07.495Z,8.60
2023-01-08T04:04:34.343Z,8.71
2023-01-08T04:07:00.967Z,8.50
2023-01-08T04:09:27.537Z,8.55
2023-01-08T04:11:54.068Z,8.54
2023-01-08T04:14:20.563Z,8.66
2023-01-08T04:16:47.175Z,8.54
2023-01-08T04:19:14.274Z,8.56
2023-01-08T04:21:40.841Z,8.53
2023-01-08T04:24:08.680Z,8.52
2023-01-08T04:26:35.219Z,8.62
2023-01-08T04:29:05.115Z,8.66
2023-01-08T04:31:31.893Z,8.72
2023-01-08T04:33:58.485Z,8.58
2023-01-08T04:36:25.032Z,8.87
2023-01-08T04:38:51.630Z,8.75
2023-01-08T04:41:18.541Z,8.29
2023-01-08T04:43:46.211Z,8.81
2023-01-08T04:46:12.852Z,8.72
2023-01-08T04:48:39.504Z,8.27
2023-01-08T04:51:06.253Z,8.69
2023-01-08T04:53:35.770Z,8.79
2023-01-08T04:56:08.000Z,8.87
2023-01-08T04:58:35.557Z,8.71
2023-01-08T05:01:10.129Z,8.60
2023-01-08T05:03:36.686Z,8.61
2023-01-08T05:06:03.298Z,8.80
2023-01-08T05:08:29.852Z,8.64
2023-01-08T05:10:59.481Z,8.13
2023-01-08T05:13:26.113Z,8.34
2023-01-08T05:15:52.646Z,8.69
2023-01-08T05:18:19.131Z,8.75
2023-01-08T05:20:45.554Z,8.80
2023-01-08T05:23:12.115Z,8.89
2023-01-08T05:25:38.681Z,8.77
2023-01-08T05:28:05.199Z,8.77
2023-01-08T05:30:31.705Z,8.86
2023-01-08T05:32:58.306Z,8.98
2023-01-08T05:35:24.835Z,8.73
2023-01-08T05:37:51.358Z,8.81
2023-01-08T05:40:17.973Z,8.82
2023-01-08T05:42:44.511Z,8.90
2023-01-08T05:45:11.144Z,9.05
2023-01-08T05:47:37.775Z,9.02
2023-01-08T05:50:04.682Z,8.89
2023-01-08T05:52:31.282Z,8.95
2023-01-08T05:55:00.041Z,9.12
2023-01-08T05:57:26.580Z,9.12
2023-01-08T05:59:53.099Z,9.20
2023-01-08T06:02:19.702Z,9.20
2023-01-08T06:04:46.348Z,9.11
2023-01-08T06:07:12.803Z,9.00
2023-01-08T06:09:39.409Z,9.11
2023-01-08T06:12:06.250Z,9.06
2023-01-08T06:14:32.979Z,9.14
2023-01-08T06:16:59.567Z,9.27
2023-01-08T06:19:26.154Z,8.96
2023-01-08T06:21:52.645Z,9.03
2023-01-08T06:24:19.221Z,8.90
2023-01-08T06:26:45.770Z,8.83
2023-01-08T06:29:12.251Z,8.79
2023-01-08T06:31:38.838Z,8.61
2023-01-08T06:34:05.508Z,8.54
2023-01-08T06:36:33.115Z,8.15
2023-01-08T06:38:59.679Z,8.26
2023-01-08T06:41:26.268Z,8.08
2023-01-08T06:43:52.810Z,7.80
2023-01-08T06:46:19.329Z,7.87
2023-01-08T06:48:45.841Z,7.70
2023-01-08T06:51:12.392Z,7.74
2023-01-08T06:53:38.909Z,7.59
2023-01-08T06:56:07.446Z,7.41
2023-01-08T06:58:33.987Z,7.24
2023-01-08T07:01:00.606Z,7.32
2023-01-08T07:03:27.279Z,7.25
2023-01-08T07:05:53.966Z,7.22
2023-01-08T07:08:20.477Z,7.18
2023-01-08T07:10:47.045Z,6.98
2023-01-08T07:13:15.203Z,7.01
2023-01-08T07:15:43.295Z,6.28
2023-01-08T07:18:11.897Z,7.02
2023-01-08T07:20:39.710Z,6.96
2023-01-08T07:23:09.814Z,6.96
2023-01-08T07:25:36.445Z,7.05
2023-01-08T07:28:03.061Z,7.12
2023-01-08T07:30:30.708Z,7.23
2023-01-08T07:32:59.558Z,7.28
2023-01-08T07:35:26.281Z,6.71
2023-01-08T07:37:52.901Z,7.11
2023-01-08T07:40:19.492Z,7.13
2023-01-08T07:42:46.051Z,7.13
2023-01-08T07:45:12.568Z,7.35
2023-01-08T07:47:39.157Z,7.40
2023-01-08T07:50:06.278Z,7.31
2023-01-08T07:52:32.877Z,7.19
2023-01-08T07:54:59.416Z,6.85
2023-01-08T07:57:25.900Z,7.19
2023-01-08T07:59:52.461Z,6.76
2023-01-08T08:02:20.154Z,7.41
2023-01-08T08:04:46.812Z,7.15
2023-01-08T08:07:13.304Z,7.18
2023-01-08T08:09:40.184Z,7.21
2023-01-08T08:12:07.021Z,6.51
2023-01-08T08:14:33.542Z,6.98
2023-01-08T08:17:00.794Z,6.93
2023-01-08T08:19:27.270Z,7.10
2023-01-08T08:21:53.869Z,7.07
2023-01-08T08:24:20.392Z,7.23
2023-01-08T08:26:46.951Z,7.02
2023-01-08T08:29:13.603Z,7.51
2023-01-08T08:31:40.358Z,7.51
2023-01-08T08:34:07.965Z,7.11
2023-01-08T08:36:34.645Z,7.76
2023-01-08T08:39:02.412Z,7.98
2023-01-08T08:41:29.037Z,7.94
2023-01-08T08:43:55.490Z,7.73
2023-01-08T08:46:22.216Z,8.23
2023-01-08T08:48:48.818Z,8.65
2023-01-08T08:51:15.452Z,9.03
2023-01-08T08:53:41.961Z,9.34
2023-01-08T08:56:08.771Z,9.11
2023-01-08T08:58:35.351Z,9.50
2023-01-08T09:01:03.735Z,9.35
2023-01-08T09:03:30.920Z,9.34
2023-01-08T09:05:59.744Z,9.33
2023-01-08T09:08:26.705Z,8.97
2023-01-08T09:10:53.203Z,9.55
2023-01-08T09:13:19.764Z,9.73
2023-01-08T09:15:46.269Z,9.77
2023-01-08T09:18:14.631Z,9.92
2023-01-08T09:20:42.292Z,10.01
2023-01-08T09:23:09.710Z,10.09
2023-01-08T09:25:36.277Z,10.42
2023-01-08T09:28:05.880Z,10.47
2023-01-08T09:30:33.665Z,10.10
2023-01-08T09:33:02.636Z,9.96
2023-01-08T09:35:29.830Z,9.87
2023-01-08T09:37:56.490Z,9.43
2023-01-08T09:40:31.479Z,8.90
2023-01-08T09:43:01.649Z,9.31
2023-01-08T09:45:31.083Z,9.13
2023-01-08T09:48:05.684Z,9.11
2023-01-08T09:50:33.886Z,9.00
2023-01-08T09:53:00.627Z,8.99
2023-01-08T09:55:31.362Z,8.59
2023-01-08T09:58:01.670Z,9.23
2023-01-08T10:00:31.852Z,9.26
2023-01-08T10:02:58.476Z,9.19
2023-01-08T10:05:29.597Z,9.24
2023-01-08T10:07:56.128Z,9.32
2023-01-08T10:10:27.801Z,8.84
2023-01-08T10:12:55.377Z,9.27
2023-01-08T10:15:23.020Z,9.22
2023-01-08T10:18:13.021Z,9.23
2023-01-08T10:20:39.978Z,8.76
2023-01-08T10:23:15.655Z,9.14
2023-01-08T10:25:51.202Z,9.19
2023-01-08T10:28:26.740Z,9.09
2023-01-08T10:30:58.586Z,9.00
2023-01-08T10:33:40.605Z,9.18
2023-01-08T10:36:10.666Z,9.47
2023-01-08T10:38:42.764Z,9.77
2023-01-08T10:41:13.424Z,10.21
2023-01-08T10:43:58.409Z,10.17
2023-01-08T10:46:28.768Z,9.57
2023-01-08T10:48:58.488Z,9.94
2023-01-08T10:51:28.203Z,9.91
2023-01-08T10:53:58.768Z,9.56
2023-01-08T10:56:28.240Z,10.03
2023-01-08T10:58:55.618Z,10.26
2023-01-08T11:01:31.453Z,10.42
2023-01-08T11:04:03.331Z,10.64
2023-01-08T11:06:36.815Z,10.58
2023-01-08T11:09:19.510Z,10.76
2023-01-08T11:11:46.061Z,10.81
2023-01-08T11:14:19.326Z,10.82
2023-01-08T11:16:46.960Z,9.78
2023-01-08T11:19:19.702Z,10.85
2023-01-08T11:21:58.595Z,11.24
2023-01-08T11:24:45.887Z,11.51
2023-01-08T11:27:12.307Z,11.99
2023-01-08T11:30:17.444Z,13.09
2023-01-08T11:33:05.371Z,13.28
2023-01-08T11:35:39.206Z,15.41
2023-01-08T11:38:08.136Z,16.96
2023-01-08T11:40:46.228Z,18.66
2023-01-08T11:43:31.033Z,19.50
2023-01-08T11:46:38.959Z,19.47
2023-01-08T11:49:31.046Z,20.34
2023-01-08T11:52:27.673Z,21.05
2023-01-08T11:55:11.927Z,21.48
2023-01-08T11:57:57.675Z,21.16
2023-01-08T12:01:01.103Z,21.07
2023-01-08T12:03:36.548Z,20.79
2023-01-08T12:06:28.157Z,21.04
2023-01-08T12:09:10.361Z,19.02
2023-01-08T12:11:47.087Z,17.16
2023-01-08T12:14:28.506Z,17.13
2023-01-08T12:17:12.222Z,16.27
2023-01-08T12:19:56.856Z,15.55
2023-01-08T12:22:38.541Z,15.04
2023-01-08T12:25:44.969Z,14.53
2023-01-08T12:28:23.278Z,13.79
2023-01-08T12:31:25.534Z,13.31
2023-01-08T12:33:56.422Z,12.80
2023-01-08T12:36:33.199Z,12.56
2023-01-08T12:39:18.432Z,11.76
2023-01-08T12:41:46.858Z,11.91
2023-01-08T12:44:23.738Z,11.61
2023-01-08T12:46:52.557Z,11.47
2023-01-08T12:49:33.271Z,11.48
2023-01-08T12:52:20.430Z,11.40
2023-01-08T12:54:54.931Z,11.40
2023-01-08T12:57:31.740Z,12.06
2023-01-08T13:00:19.954Z,13.09
2023-01-08T13:03:05.042Z,12.24
2023-01-08T13:05:35.052Z,12.05
2023-01-08T13:08:26.315Z,11.93
2023-01-08T13:10:55.060Z,12.88
2023-01-08T13:13:47.721Z,14.81
2023-01-08T13:16:14.379Z,14.66
2023-01-08T13:18:42.566Z,14.71
2023-01-08T13:21:11.756Z,15.14
2023-01-08T13:23:38.746Z,16.24
2023-01-08T13:26:06.687Z,17.56
2023-01-08T13:28:44.973Z,17.79
2023-01-08T13:31:20.868Z,18.46
2023-01-08T13:33:54.542Z,17.73
2023-01-08T13:36:23.911Z,17.12
2023-01-08T13:39:19.394Z,16.61
2023-01-08T13:41:59.099Z,15.45
2023-01-08T13:44:34.172Z,14.85
2023-01-08T13:47:04.419Z,13.76
2023-01-08T13:49:41.126Z,13.42
2023-01-08T13:52:27.815Z,12.57
2023-01-08T13:54:54.947Z,12.10
2023-01-08T13:57:23.408Z,11.86
2023-01-08T13:59:55.280Z,11.91
2023-01-08T14:02:29.955Z,11.83
2023-01-08T14:04:58.234Z,11.79
2023-01-08T14:07:25.946Z,11.79
2023-01-08T14:09:53.260Z,11.75
2023-01-08T14:12:22.950Z,11.48
2023-01-08T14:14:53.591Z,11.66
2023-01-08T14:17:27.013Z,11.56
2023-01-08T14:19:53.554Z,11.56
2023-01-08T14:22:26.233Z,11.58
2023-01-08T14:24:58.378Z,11.51
2023-01-08T14:27:27.925Z,11.53
2023-01-08T14:29:55.238Z,11.35
2023-01-08T14:32:25.384Z,10.99
2023-01-08T14:34:53.785Z,10.48
2023-01-08T14:37:20.729Z,10.73
2023-01-08T14:39:54.993Z,10.56
2023-01-08T14:42:44.377Z,10.64
2023-01-08T14:45:14.036Z,10.53
2023-01-08T14:47:49.177Z,10.15
2023-01-08T14:50:19.675Z,10.11
2023-01-08T14:52:46.868Z,10.16
2023-01-08T14:55:19.327Z,10.13
2023-01-08T14:57:48.559Z,9.88
2023-01-08T15:00:19.431Z,9.92
2023-01-08T15:02:47.691Z,9.35
2023-01-08T15:05:22.976Z,9.86
2023-01-08T15:07:59.920Z,9.75
2023-01-08T15:10:34.134Z,9.73
2023-01-08T15:13:03.617Z,9.20
2023-01-08T15:15:32.156Z,9.46
2023-01-08T15:17:59.164Z,9.12
2023-01-08T15:20:31.148Z,9.09
2023-01-08T15:22:58.432Z,9.20
2023-01-08T15:25:28.361Z,8.96
2023-01-08T15:27:59.891Z,8.98
2023-01-08T15:30:33.990Z,9.11
2023-01-08T15:33:21.739Z,9.03
2023-01-08T15:35:49.326Z,8.87
2023-01-08T15:38:16.731Z,8.74
2023-01-08T15:40:44.702Z,8.79
2023-01-08T15:43:13.789Z,8.61
2023-01-08T15:45:46.129Z,8.69
2023-01-08T15:48:13.457Z,8.01
2023-01-08T15:50:43.590Z,8.16
2023-01-08T15:53:16.639Z,8.16
2023-01-08T15:55:44.403Z,7.92
2023-01-08T15:58:12.510Z,8.12
2023-01-08T16:00:40.618Z,7.60
2023-01-08T16:03:07.588Z,7.77
2023-01-08T16:05:34.962Z,7.05
2023-01-08T16:08:01.473Z,7.74
2023-01-08T16:10:29.076Z,7.67
2023-01-08T16:12:55.942Z,7.23
2023-01-08T16:15:22.827Z,7.72
2023-01-08T16:17:49.529Z,7.39
2023-01-08T16:20:16.941Z,7.58
2023-01-08T16:22:43.877Z,7.75
2023-01-08T16:25:10.881Z,7.92
2023-01-08T16:27:38.348Z,7.73
2023-01-08T16:30:07.930Z,7.68
2023-01-08T16:32:34.653Z,7.83
2023-01-08T16:35:01.266Z,7.89
2023-01-08T16:37:30.600Z,7.90
2023-01-08T16:39:57.162Z,7.74
2023-01-08T16:42:24.013Z,7.84
2023-01-08T16:44:50.616Z,7.74
2023-01-08T16:47:17.152Z,7.86
2023-01-08T16:49:43.706Z,7.79
2023-01-08T16:52:10.446Z,7.71
2023-01-08T16:54:37.551Z,7.78
2023-01-08T16:57:04.217Z,7.99
2023-01-08T16:59:32.852Z,7.99
2023-01-08T17:02:00.145Z,8.12
2023-01-08T17:04:29.355Z,8.21
2023-01-08T17:06:56.360Z,8.34
2023-01-08T17:09:23.481Z,8.39
2023-01-08T17:11:50.224Z,8.52
2023-01-08T17:14:17.001Z,8.45
2023-01-08T17:16:45.307Z,8.49
2023-01-08T17:19:13.490Z,7.88
2023-01-08T17:21:40.330Z,8.45
2023-01-08T17:24:07.537Z,8.04
2023-01-08T17:26:34.156Z,8.59
2023-01-08T17:29:00.862Z,8.65
2023-01-08T17:31:27.430Z,8.74
2023-01-08T17:33:54.528Z,8.57
2023-01-08T17:36:24.045Z,8.55
2023-01-08T17:38:53.353Z,8.74
2023-01-08T17:41:40.083Z,8.50
2023-01-08T17:44:11.464Z,8.69
2023-01-08T17:46:44.982Z,8.61
2023-01-08T17:49:13.432Z,8.29
2023-01-08T17:58:34.928Z,8.08
2023-01-08T18:01:01.509Z,7.60
2023-01-08T18:03:28.136Z,7.78
2023-01-08T18:05:54.583Z,7.39
2023-01-08T18:08:21.045Z,7.75
2023-01-08T18:10:47.583Z,7.63
2023-01-08T18:13:14.255Z,7.55
2023-01-08T18:15:40.780Z,7.52
2023-01-08T18:18:07.261Z,7.38
2023-01-08T18:20:33.825Z,7.55
2023-01-08T18:23:00.322Z,7.51
2023-01-08T18:25:26.819Z,7.57
2023-01-08T18:27:54.096Z,7.49
2023-01-08T18:30:20.896Z,7.44
2023-01-08T18:32:47.372Z,7.39
2023-01-08T18:35:15.151Z,7.31
2023-01-08T18:37:41.714Z,7.39
2023-01-08T18:40:08.897Z,7.18
2023-01-08T18:42:35.424Z,7.14
2023-01-08T18:45:03.265Z,7.21
2023-01-08T18:47:30.170Z,7.24
2023-01-08T18:49:58.991Z,7.50
2023-01-08T18:52:25.610Z,7.36
2023-01-08T18:54:53.581Z,7.26
2023-01-08T18:57:20.369Z,7.34
2023-01-08T18:59:49.395Z,7.27
2023-01-08T19:02:22.202Z,7.40
2023-01-08T19:04:49.720Z,7.35
2023-01-08T19:07:17.202Z,7.57
2023-01-08T19:09:43.824Z,7.44
2023-01-08T19:12:10.556Z,6.91
2023-01-08T19:14:37.415Z,7.50
2023-01-08T19:17:04.613Z,7.04
2023-01-08T19:19:31.516Z,7.54
2023-01-08T19:21:58.152Z,7.29
2023-01-08T19:24:24.797Z,7.27
2023-01-08T19:26:51.876Z,7.23
2023-01-08T19:29:18.927Z,7.11
2023-01-08T19:31:45.918Z,7.04
2023-01-08T19:34:12.868Z,6.90
2023-01-08T19:36:39.555Z,6.90
2023-01-08T19:39:07.484Z,6.98
2023-01-08T19:41:52.651Z,7.06
2023-01-08T19:44:19.240Z,7.19
2023-01-08T19:46:45.818Z,7.25
2023-01-08T19:49:12.716Z,7.38
2023-01-08T19:51:39.502Z,7.55
2023-01-08T19:54:06.158Z,7.50
2023-01-08T19:56:32.745Z,7.58
2023-01-08T19:58:59.342Z,7.21
2023-01-08T20:01:28.220Z,7.45
2023-01-08T20:03:56.304Z,7.93
2023-01-08T20:06:24.821Z,7.93
2023-01-08T20:08:54.227Z,7.90
2023-01-08T20:11:22.413Z,7.75
2023-01-08T20:13:50.292Z,7.93
2023-01-08T20:16:18.456Z,7.75
2023-01-08T20:18:45.462Z,7.84
2023-01-08T20:21:23.010Z,7.60
2023-01-08T20:24:01.770Z,7.44
2023-01-08T20:26:30.289Z,8.13
2023-01-08T20:28:58.284Z,8.10
2023-01-08T20:31:29.457Z,8.05
2023-01-08T20:33:57.353Z,8.13
2023-01-08T20:36:27.633Z,8.26
2023-01-08T20:38:56.572Z,8.41
2023-01-08T20:41:24.184Z,8.39
2023-01-08T20:43:50.817Z,8.27
2023-01-08T20:46:17.434Z,8.26
2023-01-08T20:48:47.655Z,8.51
2023-01-08T20:51:15.805Z,8.52
2023-01-08T20:53:42.582Z,8.44
2023-01-08T20:56:14.689Z,8.39
2023-01-08T20:58:44.128Z,8.05
2023-01-08T21:01:14.263Z,7.82
2023-01-08T21:03:41.595Z,8.34
2023-01-08T21:06:15.655Z,8.34
2023-01-08T21:08:43.409Z,8.27
2023-01-08T21:11:12.816Z,7.74
2023-01-08T21:13:40.122Z,8.43
2023-01-08T21:16:11.124Z,8.33
2023-01-08T21:18:40.517Z,8.23
2023-01-08T21:21:07.997Z,8.21
2023-01-08T21:23:34.709Z,8.34
2023-01-08T21:26:06.985Z,8.37
2023-01-08T21:28:34.298Z,8.36
2023-01-08T21:31:13.016Z,8.37
2023-01-08T21:33:39.827Z,8.21
2023-01-08T21:36:12.593Z,8.08
2023-01-08T21:38:39.508Z,8.15
2023-01-08T21:41:08.460Z,8.31
2023-01-08T21:43:54.232Z,8.61
2023-01-08T21:46:25.580Z,8.61
2023-01-08T21:48:52.336Z,8.29
2023-01-08T21:51:37.393Z,8.43
2023-01-08T21:54:04.534Z,8.48
2023-01-08T21:56:31.256Z,8.20
2023-01-08T21:58:57.802Z,8.50
2023-01-08T22:01:24.518Z,8.47
2023-01-08T22:03:51.226Z,8.53
2023-01-08T22:06:17.848Z,8.57
2023-01-08T22:08:45.209Z,8.54
2023-01-08T22:11:11.889Z,8.52
2023-01-08T22:13:39.311Z,8.66
2023-01-08T22:16:09.133Z,8.50
2023-01-08T22:18:36.796Z,8.63
2023-01-08T22:21:06.514Z,8.63
2023-01-08T22:23:34.005Z,8.72
2023-01-08T22:26:22.052Z,8.61
2023-01-08T22:28:48.563Z,8.62
2023-01-08T22:31:16.371Z,8.58
2023-01-08T22:33:43.540Z,8.71
2023-01-08T22:36:12.607Z,8.69
2023-01-08T22:39:08.465Z,8.78
2023-01-08T22:41:36.545Z,8.52
2023-01-08T22:44:03.468Z,8.57
2023-01-08T22:47:21.074Z,8.51
2023-01-08T22:49:48.415Z,8.42
2023-01-08T22:52:15.035Z,8.37
2023-01-08T22:54:41.631Z,8.47
2023-01-08T22:57:08.554Z,8.41
2023-01-08T22:59:35.174Z,8.36
2023-01-08T23:02:01.668Z,8.34
2023-01-08T23:04:28.148Z,8.25
2023-01-08T23:06:54.603Z,8.29
2023-01-08T23:09:21.126Z,8.43
2023-01-08T23:11:47.590Z,7.90
2023-01-08T23:14:15.868Z,8.39
2023-01-08T23:16:43.106Z,8.25
2023-01-08T23:19:09.654Z,8.42
2023-01-08T23:21:38.481Z,8.48
2023-01-08T23:24:07.126Z,8.38
2023-01-08T23:26:33.677Z,8.46
2023-01-08T23:29:00.624Z,8.44
2023-01-08T23:31:29.158Z,8.35
2023-01-08T23:33:56.537Z,8.05
2023-01-08T23:36:23.209Z,8.47
2023-01-08T23:38:52.835Z,8.47
2023-01-08T23:41:23.024Z,8.23
2023-01-08T23:43:50.181Z,8.15
2023-01-08T23:46:17.719Z,8.08
2023-01-08T23:48:44.723Z,7.91
2023-01-08T23:51:11.265Z,7.42
2023-01-08T23:53:38.125Z,7.48
2023-01-08T23:56:05.029Z,7.68
2023-01-08T23:58:31.575Z,7.63
